• Join FlightAware (Why Join?)
  • Login
  • US Flag 
05:59PM EST


 

Airport Tracker/Info


-or-


 

Live Flight TrackerFlight Track Log ✈ AAL832 ✈ 29-Jun-2013 ✈ KORD - KMIA

Flight Track Log - Related Links

Times and Time Zones

All times are in EDT time to prevent confusion due to time zone crossing. See the AAL832 flight status page for this flight to view local times or setup timezone preferences in your user account.

Time Position Orientation Groundspeed Altitude Reporting Facility
EDT Latitude Longitude Course Direction KTS MPH feet Rate Location/Type
05:55PM 41.9833 -87.8500 180° South 187 215 2,500  Level Chicago TRACON
05:56PM 41.9333 -87.8000 143° Southeast 262 302 4,500 1,320 Climbing Chicago TRACON
05:57PM 41.6660 -87.7223 166° South  Level Estimated
05:57PM 41.8656 -87.7744 164° South 264 304 5,100  Level Chicago Center
05:58PM 41.5606 -87.6613 167° South  Level Estimated
05:58PM 41.7842 -87.7722 179° South 290 334 7,700  Level Chicago Center
05:59PM 41.4553 -87.6004 180° South  Level Estimated
05:59PM 41.7019 -87.7614 174° South 296 341 10,500  Level Chicago Center
06:00PM 41.3500 -87.5398 180° South  Level Estimated
06:00PM 41.6156 -87.7478 173° South 306 352 12,800  Level Chicago Center
06:01PM 41.5131 -87.7231 170° South 370 426 14,500 2,040 Climbing Chicago Center
06:02PM 41.3808 -87.6956 171° South 396 456 17,100 2,220 Climbing Chicago Center
06:03PM 41.2647 -87.6692 170° South 416 479 19,200 2,100 Climbing Chicago Center
06:04PM 41.1439 -87.6433 171° South 434 499 21,500 1,800 Climbing Chicago Center
06:05PM 41.0219 -87.6161 170° South 443 510 23,000 1,680 Climbing Chicago Center
06:06PM 40.9000 -87.5758 166° South 450 518 25,000 1,500 Climbing Chicago Center
06:07PM 40.7792 -87.5208 161° South 457 526 26,100 1,200 Climbing Chicago Center
06:08PM 40.6550 -87.4681 162° South 467 537 27,500 1,500 Climbing Chicago Center
06:09PM 40.5025 -87.4086 163° South 477 549 29,300 1,680 Climbing Chicago Center
06:10PM 40.3775 -87.3539 162° South 478 550 31,000 1,740 Climbing Chicago Center
06:11PM 40.2592 -87.2917 158° South 467 537 33,000 1,740 Climbing Chicago Center
06:12PM 40.1456 -87.2369 160° South 446 513 34,700 1,080 Climbing Chicago Center
06:13PM 40.0336 -87.1839 160° South 433 498 35,300 420 Climbing Chicago Center
06:14PM 39.9372 -87.1506 165° South 440 506 35,600 480 Climbing Indianapolis Center
06:15PM 39.7911 -87.1011 165° South 452 520 36,300 660 Climbing Indianapolis Center
06:16PM 39.6672 -87.0597 166° South 461 531 37,000 300 Climbing Indianapolis Center
06:17PM 39.5450 -87.0206 166° South 459 528 37,000  Level Indianapolis Center
06:18PM 39.4253 -86.9647 160° South 467 537 37,000  Level Indianapolis Center
06:19PM 39.3161 -86.8803 149° Southeast 462 532 37,000  Level Indianapolis Center
06:20PM 39.2058 -86.7983 150° Southeast 461 531 37,000  Level Indianapolis Center
06:21PM 39.0917 -86.7108 149° Southeast 461 531 37,000  Level Indianapolis Center
06:22PM 38.9803 -86.6269 150° Southeast 461 531 37,000  Level Indianapolis Center
06:23PM 38.8406 -86.5328 152° Southeast 467 537 37,000  Level Indianapolis Center
06:24PM 38.7222 -86.4628 155° Southeast 466 536 37,000  Level Indianapolis Center
06:25PM 38.6006 -86.4275 167° South 444 511 37,000  Level Indianapolis Center
06:26PM 38.4767 -86.3931 168° South 449 517 37,000  Level Indianapolis Center
06:27PM 38.3511 -86.3581 168° South 455 524 37,000  Level Indianapolis Center
06:29PM 38.2292 -86.2992 159° South 462 532 37,000  Level Indianapolis Center
06:30PM 38.1081 -86.2350 157° South 467 537 37,000  Level Indianapolis Center
06:31PM 37.9886 -86.1739 158° South 461 531 37,000  Level Indianapolis Center
06:32PM 37.8689 -86.1106 157° South 461 531 37,000  Level Indianapolis Center
06:33PM 37.7508 -86.0508 158° South 457 526 37,000  Level Indianapolis Center
06:34PM 37.6344 -85.9864 156° South 454 522 37,000  Level Indianapolis Center
06:35PM 37.5056 -85.9150 156° South 446 513 37,000  Level Indianapolis Center
06:36PM 37.3886 -85.8467 155° Southeast 452 520 37,000  Level Indianapolis Center
06:37PM 37.2728 -85.7817 156° South 453 521 37,000  Level Indianapolis Center
06:38PM 37.1581 -85.7153 155° Southeast 448 516 37,000  Level Indianapolis Center
06:39PM 37.0425 -85.6503 156° South 449 517 37,000  Level Indianapolis Center
06:40PM 36.9275 -85.5842 155° Southeast 449 517 37,000  Level Indianapolis Center
06:41PM 36.8125 -85.5211 156° South 444 511 37,000  Level Indianapolis Center
06:42PM 36.6853 -85.4822 166° South 424 488 37,000  Level Indianapolis Center
06:43PM 36.5694 -85.4606 171° South 422 486 37,000  Level Indianapolis Center
06:44PM 36.4536 -85.4392 172° South 421 484 37,000  Level Indianapolis Center
06:45PM 36.3381 -85.4161 171° South 420 483 37,000  Level Indianapolis Center
06:46PM 36.2231 -85.3947 171° South 419 482 37,000  Level Indianapolis Center
06:47PM 36.1075 -85.3728 171° South 421 484 37,000  Level Indianapolis Center
06:47PM 36.0408 -85.3611 172° South 429 494 37,000  Level Atlanta Center
06:48PM 35.9242 -85.3414 172° South 429 494 37,000  Level Atlanta Center
06:49PM 35.8075 -85.3189 171° South 429 494 37,000  Level Atlanta Center
06:50PM 35.6911 -85.2967 171° South 429 494 37,000  Level Atlanta Center
06:51PM 35.5722 -85.2719 170° South 424 488 37,000  Level Atlanta Center
06:52PM 35.4558 -85.2497 171° South 424 488 37,000  Level Atlanta Center
06:53PM 35.3411 -85.2278 171° South 424 488 37,000  Level Atlanta Center
06:54PM 35.2225 -85.2058 171° South 424 488 37,000  Level Atlanta Center
06:55PM 35.1078 -85.1839 171° South 424 488 37,000  Level Atlanta Center
06:56PM 34.9914 -85.1619 171° South 424 488 37,000  Level Atlanta Center
06:57PM 34.8725 -85.1400 171° South 424 488 37,000  Level Atlanta Center
06:58PM 34.7583 -85.0856 159° South 430 495 37,000  Level Atlanta Center
06:59PM 34.6358 -85.0083 153° Southeast 446 513 37,000  Level Atlanta Center
07:00PM 34.5236 -84.9389 153° Southeast 451 519 37,000  Level Atlanta Center
07:01PM 34.4072 -84.8697 154° Southeast 456 525 37,000  Level Atlanta Center
07:02PM 34.3053 -84.8108 154° Southeast 456 525 37,000  Level Atlanta Center
07:03PM 34.1950 -84.7444 154° Southeast 456 525 37,000  Level Atlanta Center
07:04PM 34.0744 -84.6758 155° Southeast 462 532 37,000  Level Atlanta Center
07:05PM 33.9619 -84.6097 154° Southeast 462 532 37,000  Level Atlanta Center
07:06PM 33.8411 -84.5714 165° South 457 526 37,000  Level Atlanta Center
07:07PM 33.7222 -84.5483 171° South 438 504 37,000  Level Atlanta Center
07:08PM 33.6033 -84.5303 173° South 438 504 37,000  Level Atlanta Center
07:09PM 33.4803 -84.5094 172° South 443 510 37,000  Level Atlanta Center
07:10PM 33.3614 -84.4864 171° South 443 510 37,000  Level Atlanta Center
07:11PM 33.2361 -84.4661 172° South 449 517 37,000  Level Atlanta Center
07:12PM 33.1172 -84.4456 172° South 444 511 37,000  Level Atlanta Center
07:13PM 32.9964 -84.4278 173° South 449 517 37,000  Level Atlanta Center
07:14PM 32.8711 -84.4047 171° South 449 517 37,000  Level Atlanta Center
07:15PM 32.7522 -84.3847 172° South 449 517 37,000  Level Atlanta Center
07:16PM 32.6311 -84.3619 171° South 449 517 37,000  Level Atlanta Center
07:17PM 32.5103 -84.3417 172° South 444 511 37,000  Level Atlanta Center
07:18PM 32.3869 -84.3192 171° South 444 511 37,000  Level Atlanta Center
07:19PM 32.2661 -84.2992 172° South 444 511 37,000  Level Atlanta Center
07:21PM 32.0442 -84.2628 172° South 444 511 37,000  Level Jacksonville Center
07:22PM 31.9233 -84.2414 171° South 444 511 37,000  Level Jacksonville Center
07:23PM 31.8069 -84.2006 163° South 444 511 37,000  Level Jacksonville Center
07:24PM 31.6864 -84.1547 162° South 449 517 37,000  Level Jacksonville Center
07:25PM 31.5697 -84.1094 162° South 454 522 37,000  Level Jacksonville Center
07:26PM 31.4492 -84.0614 161° South 454 522 37,000  Level Jacksonville Center
07:27PM 31.3328 -84.0161 162° South 454 522 37,000  Level Jacksonville Center
07:28PM 31.2119 -83.9686 161° South 459 528 37,000  Level Jacksonville Center
07:29PM 31.0956 -83.9211 161° South 459 528 37,000  Level Jacksonville Center
07:30PM 30.9747 -83.8764 162° South 459 528 37,000  Level Jacksonville Center
07:31PM 30.8581 -83.8292 161° South 459 528 37,000  Level Jacksonville Center
07:32PM 30.7375 -83.7844 162° South 459 528 37,000  Level Jacksonville Center
07:33PM 30.6167 -83.7375 162° South 459 528 37,000  Level Jacksonville Center
07:34PM 30.5125 -83.6956 161° South 459 528 37,000  Level Jacksonville Center
07:35PM 30.3936 -83.6489 161° South 459 528 37,000  Level Jacksonville Center
07:36PM 30.2708 -83.6022 162° South 459 528 37,000  Level Jacksonville Center
07:37PM 30.1500 -83.5581 162° South 459 528 37,000  Level Jacksonville Center
07:38PM 30.0292 -83.5117 162° South 459 528 37,000 -60 Level Jacksonville Center
07:39PM 29.9083 -83.4653 162° South 459 528 36,900  Descending Jacksonville Center
07:40PM 29.7853 -83.4192 162° South 459 528 37,000  Climbing Jacksonville Center
07:41PM 29.6644 -83.3731 162° South 464 534 36,900  Descending Jacksonville Center
07:42PM 29.5331 -83.3103 157° South 459 528 37,000  Climbing Jacksonville Center
07:43PM 29.4164 -83.2572 158° South 464 534 37,000 -60 Level Jacksonville Center
07:44PM 29.2975 -83.1997 157° South 464 534 36,900  Descending Jacksonville Center
07:45PM 29.1806 -83.1447 158° South 459 528 37,000  Climbing Jacksonville Center
07:46PM 29.0639 -83.0897 158° South 454 522 37,000 -60 Level Jacksonville Center
07:47PM 28.9469 -83.0350 158° South 454 522 36,900  Descending Jacksonville Center
07:48PM 28.8303 -82.9828 159° South 454 522 37,000  Climbing Jacksonville Center
07:49PM 28.7133 -82.9258 157° South 454 522 36,900  Descending Jacksonville Center
07:50PM 28.5944 -82.8761 160° South 454 522 37,000  Climbing Jacksonville Center
07:51PM 28.4775 -82.8217 158° South 454 522 36,900  Descending Jacksonville Center
07:54PM 28.1700 -82.6803 158° South 450 518 37,000  Climbing Miami Center
07:55PM 28.0553 -82.6294 159° South 445 512 37,000  Level Miami Center
07:56PM 27.9344 -82.5717 157° South 450 518 37,000  Level Miami Center
07:57PM 27.8197 -82.5214 159° South 450 518 37,000  Level Miami Center
07:58PM 27.6922 -82.5292 183° South 451 519 37,000  Level Miami Center
07:59PM 27.5808 -82.6008 210° Southwest 451 519 37,000  Level Miami Center
08:00PM 27.4667 -82.6911 215° Southwest 456 525 37,000  Level Miami Center
08:01PM 27.3633 -82.7700 214° Southwest 458 527 37,000  Level Miami Center
08:02PM 27.2450 -82.8036 194° South 440 506 37,000 -60 Level Miami Center
08:03PM 27.1472 -82.7472 153° Southeast 414 476 36,900 -60 Descending Miami Center
08:04PM 27.0725 -82.6339 127° Southeast 396 456 36,900  Level Miami Center
08:05PM 26.9878 -82.5086 127° Southeast 417 480 36,900  Level Miami Center
08:06PM 26.9183 -82.4119 129° Southeast 442 509 37,000  Climbing Miami Center
08:07PM 26.8411 -82.3036 129° Southeast 448 516 36,900 -780 Descending Miami Center
08:08PM 26.7639 -82.1931 128° Southeast 448 516 35,500 -1,440 Descending Miami Center
08:09PM 26.6844 -82.0828 129° Southeast 442 509 34,100 -1,440 Descending Miami Center
08:10PM 26.6219 -81.9614 120° Southeast 453 521 32,700 -1,680 Descending Miami Center
08:11PM 26.5453 -81.8211 121° Southeast 475 547 30,800 -1,800 Descending Miami Center
08:12PM 26.4922 -81.7192 120° Southeast 480 552 29,100 -2,100 Descending Miami Center
08:13PM 26.4056 -81.5672 122° Southeast 485 558 26,700 -2,280 Descending Miami Center
08:14PM 26.3086 -81.4592 135° Southeast 485 558 24,600 -2,160 Descending Miami Center
08:15PM 26.2181 -81.3492 133° Southeast 485 558 22,400 -2,280 Descending Miami Center
08:15PM 26.1675 -81.2964 137° Southeast 475 547 21,100 -2,400 Descending Miami Center
08:16PM 26.1192 -81.2392 133° Southeast 464 534 19,900 -2,220 Descending Miami Center
08:17PM 26.0447 -81.1439 131° Southeast 469 540 17,900 -2,100 Descending Miami Center
08:18PM 25.9719 -81.0603 134° Southeast 432 497 15,900 -960 Descending Miami Center
08:19PM 25.8931 -80.9675 133° Southeast 405 466 16,000 -300 Climbing Miami Center
08:20PM 25.8689 -80.8653 105° East 350 403 15,400 -960 Descending Miami Center
08:21PM 25.8633 -80.7633 93° East 327 376 14,100 -1,500 Descending Miami Center
08:22PM 25.8700 -80.6667 86° East 314 361 12,400 -1,500 Descending Miami Center
08:23PM 25.8786 -80.5722 84° East 308 354 11,100 -1,200 Descending Miami Center
08:24PM 25.8872 -80.4803 84° East 308 354 10,000 -1,200 Descending Miami Center
08:25PM 25.8958 -80.3881 84° East 308 354 8,700 -1,500 Descending Miami Center
08:26PM 25.9006 -80.2775 87° East 296 341 6,700 -1,320 Descending Miami Center
08:27PM 25.9086 -80.1967 84° East 242 278 5,900 -1,200 Descending Miami Center
08:28PM 25.8956 -80.1294 102° East 225 259 4,300 -1,620 Descending Miami Center